sensor_id;sensor_type;location;lat;lon;timestamp;P1;durP1;ratioP1;P2;durP2;ratioP2
11394;SDS011;5753;54.402;10.220;2024-01-30T00:00:52;34.85;;;21.50;;
11394;SDS011;5753;54.402;10.220;2024-01-30T00:03:19;36.00;;;20.42;;
11394;SDS011;5753;54.402;10.220;2024-01-30T00:05:48;48.35;;;24.85;;
11394;SDS011;5753;54.402;10.220;2024-01-30T00:08:14;41.50;;;23.02;;
11394;SDS011;5753;54.402;10.220;2024-01-30T00:10:41;50.85;;;22.75;;
11394;SDS011;5753;54.402;10.220;2024-01-30T00:13:07;47.78;;;24.33;;
11394;SDS011;5753;54.402;10.220;2024-01-30T00:15:35;35.05;;;21.38;;
11394;SDS011;5753;54.402;10.220;2024-01-30T00:18:03;33.83;;;22.08;;
11394;SDS011;5753;54.402;10.220;2024-01-30T00:20:31;40.88;;;27.33;;
11394;SDS011;5753;54.402;10.220;2024-01-30T00:22:58;39.05;;;20.48;;
11394;SDS011;5753;54.402;10.220;2024-01-30T00:25:26;54.67;;;23.90;;
11394;SDS011;5753;54.402;10.220;2024-01-30T00:27:52;40.22;;;22.63;;
11394;SDS011;5753;54.402;10.220;2024-01-30T00:30:22;55.15;;;27.13;;
11394;SDS011;5753;54.402;10.220;2024-01-30T00:32:49;33.33;;;18.50;;
11394;SDS011;5753;54.402;10.220;2024-01-30T00:35:16;44.60;;;26.30;;
11394;SDS011;5753;54.402;10.220;2024-01-30T00:37:43;46.92;;;22.70;;
11394;SDS011;5753;54.402;10.220;2024-01-30T00:40:11;62.17;;;25.02;;
11394;SDS011;5753;54.402;10.220;2024-01-30T00:42:43;52.80;;;22.85;;
11394;SDS011;5753;54.402;10.220;2024-01-30T00:45:13;38.38;;;22.25;;
11394;SDS011;5753;54.402;10.220;2024-01-30T00:47:41;37.00;;;20.38;;
11394;SDS011;5753;54.402;10.220;2024-01-30T00:50:09;31.25;;;20.35;;
11394;SDS011;5753;54.402;10.220;2024-01-30T00:52:36;34.08;;;18.92;;
11394;SDS011;5753;54.402;10.220;2024-01-30T00:55:04;38.97;;;22.45;;
11394;SDS011;5753;54.402;10.220;2024-01-30T00:57:31;36.28;;;20.02;;
11394;SDS011;5753;54.402;10.220;2024-01-30T01:00:00;41.00;;;19.63;;
11394;SDS011;5753;54.402;10.220;2024-01-30T01:02:29;34.47;;;23.52;;
11394;SDS011;5753;54.402;10.220;2024-01-30T01:04:55;37.03;;;18.63;;
11394;SDS011;5753;54.402;10.220;2024-01-30T01:07:24;36.15;;;17.50;;
11394;SDS011;5753;54.402;10.220;2024-01-30T01:09:51;25.40;;;17.63;;
11394;SDS011;5753;54.402;10.220;2024-01-30T01:12:19;32.63;;;17.92;;
11394;SDS011;5753;54.402;10.220;2024-01-30T01:14:46;25.20;;;17.63;;
11394;SDS011;5753;54.402;10.220;2024-01-30T01:17:14;31.45;;;18.23;;
11394;SDS011;5753;54.402;10.220;2024-01-30T01:19:40;28.92;;;18.35;;
11394;SDS011;5753;54.402;10.220;2024-01-30T01:22:06;32.70;;;19.33;;
11394;SDS011;5753;54.402;10.220;2024-01-30T01:24:33;28.60;;;17.63;;
11394;SDS011;5753;54.402;10.220;2024-01-30T01:27:00;26.40;;;18.88;;
11394;SDS011;5753;54.402;10.220;2024-01-30T01:29:28;28.63;;;19.48;;
11394;SDS011;5753;54.402;10.220;2024-01-30T01:31:58;26.98;;;19.70;;
11394;SDS011;5753;54.402;10.220;2024-01-30T01:34:24;33.25;;;19.05;;
11394;SDS011;5753;54.402;10.220;2024-01-30T01:36:51;32.67;;;15.88;;
11394;SDS011;5753;54.402;10.220;2024-01-30T01:39:22;26.60;;;18.23;;
11394;SDS011;5753;54.402;10.220;2024-01-30T01:41:48;28.55;;;16.85;;
11394;SDS011;5753;54.402;10.220;2024-01-30T01:44:18;22.67;;;15.55;;
11394;SDS011;5753;54.402;10.220;2024-01-30T01:46:44;27.50;;;16.10;;
11394;SDS011;5753;54.402;10.220;2024-01-30T01:49:11;25.50;;;16.27;;
11394;SDS011;5753;54.402;10.220;2024-01-30T01:51:41;24.33;;;16.23;;
11394;SDS011;5753;54.402;10.220;2024-01-30T01:54:11;27.98;;;15.15;;
11394;SDS011;5753;54.402;10.220;2024-01-30T01:56:39;22.55;;;14.90;;
11394;SDS011;5753;54.402;10.220;2024-01-30T01:59:12;27.95;;;16.02;;
11394;SDS011;5753;54.402;10.220;2024-01-30T02:01:40;28.98;;;15.70;;
11394;SDS011;5753;54.402;10.220;2024-01-30T02:04:07;35.03;;;19.85;;
11394;SDS011;5753;54.402;10.220;2024-01-30T02:06:35;24.65;;;15.25;;
11394;SDS011;5753;54.402;10.220;2024-01-30T02:09:04;26.30;;;15.38;;
11394;SDS011;5753;54.402;10.220;2024-01-30T02:11:31;26.17;;;17.92;;
11394;SDS011;5753;54.402;10.220;2024-01-30T02:14:04;26.10;;;16.98;;
11394;SDS011;5753;54.402;10.220;2024-01-30T02:16:32;21.23;;;14.35;;
11394;SDS011;5753;54.402;10.220;2024-01-30T02:18:59;28.08;;;17.02;;
11394;SDS011;5753;54.402;10.220;2024-01-30T02:21:27;22.50;;;15.00;;
11394;SDS011;5753;54.402;10.220;2024-01-30T02:23:55;30.25;;;17.95;;
11394;SDS011;5753;54.402;10.220;2024-01-30T02:26:25;26.52;;;15.38;;
11394;SDS011;5753;54.402;10.220;2024-01-30T02:28:51;21.63;;;17.08;;
11394;SDS011;5753;54.402;10.220;2024-01-30T02:31:17;29.15;;;16.83;;
11394;SDS011;5753;54.402;10.220;2024-01-30T02:33:44;23.85;;;15.40;;
11394;SDS011;5753;54.402;10.220;2024-01-30T02:36:11;27.35;;;16.35;;
11394;SDS011;5753;54.402;10.220;2024-01-30T02:38:38;24.80;;;15.38;;
11394;SDS011;5753;54.402;10.220;2024-01-30T02:41:06;21.20;;;14.32;;
11394;SDS011;5753;54.402;10.220;2024-01-30T02:43:32;22.23;;;15.05;;
11394;SDS011;5753;54.402;10.220;2024-01-30T02:45:58;18.65;;;14.88;;
11394;SDS011;5753;54.402;10.220;2024-01-30T02:48:27;18.85;;;15.18;;
11394;SDS011;5753;54.402;10.220;2024-01-30T02:50:54;22.40;;;16.45;;
11394;SDS011;5753;54.402;10.220;2024-01-30T02:53:21;18.70;;;16.73;;
11394;SDS011;5753;54.402;10.220;2024-01-30T02:55:48;34.17;;;18.75;;
11394;SDS011;5753;54.402;10.220;2024-01-30T02:58:14;23.90;;;17.70;;
11394;SDS011;5753;54.402;10.220;2024-01-30T03:00:42;26.40;;;17.65;;
11394;SDS011;5753;54.402;10.220;2024-01-30T03:03:10;28.02;;;16.67;;
11394;SDS011;5753;54.402;10.220;2024-01-30T03:05:37;30.75;;;17.05;;
11394;SDS011;5753;54.402;10.220;2024-01-30T03:08:05;25.02;;;14.25;;
11394;SDS011;5753;54.402;10.220;2024-01-30T03:10:33;34.42;;;13.40;;
11394;SDS011;5753;54.402;10.220;2024-01-30T03:12:59;20.95;;;14.63;;
11394;SDS011;5753;54.402;10.220;2024-01-30T03:15:29;22.63;;;14.05;;
11394;SDS011;5753;54.402;10.220;2024-01-30T03:17:56;18.98;;;14.93;;
11394;SDS011;5753;54.402;10.220;2024-01-30T03:20:24;24.98;;;17.10;;
11394;SDS011;5753;54.402;10.220;2024-01-30T03:22:50;27.45;;;17.40;;
11394;SDS011;5753;54.402;10.220;2024-01-30T03:25:17;20.88;;;16.10;;
11394;SDS011;5753;54.402;10.220;2024-01-30T03:27:44;25.08;;;15.45;;
11394;SDS011;5753;54.402;10.220;2024-01-30T03:30:17;18.65;;;13.55;;
11394;SDS011;5753;54.402;10.220;2024-01-30T03:32:47;20.45;;;14.63;;
11394;SDS011;5753;54.402;10.220;2024-01-30T03:35:14;19.00;;;14.35;;
11394;SDS011;5753;54.402;10.220;2024-01-30T03:37:42;22.20;;;15.27;;
11394;SDS011;5753;54.402;10.220;2024-01-30T03:40:10;23.65;;;14.93;;
11394;SDS011;5753;54.402;10.220;2024-01-30T03:42:38;22.92;;;16.23;;
11394;SDS011;5753;54.402;10.220;2024-01-30T03:45:06;23.63;;;17.13;;
11394;SDS011;5753;54.402;10.220;2024-01-30T03:47:34;21.25;;;15.07;;
11394;SDS011;5753;54.402;10.220;2024-01-30T03:50:01;34.10;;;17.90;;
11394;SDS011;5753;54.402;10.220;2024-01-30T03:52:31;19.98;;;14.00;;
11394;SDS011;5753;54.402;10.220;2024-01-30T03:54:59;25.40;;;14.77;;
11394;SDS011;5753;54.402;10.220;2024-01-30T03:57:28;28.25;;;15.82;;
11394;SDS011;5753;54.402;10.220;2024-01-30T03:59:58;28.27;;;14.35;;
11394;SDS011;5753;54.402;10.220;2024-01-30T04:02:24;17.60;;;13.40;;
11394;SDS011;5753;54.402;10.220;2024-01-30T04:04:52;23.20;;;15.27;;
11394;SDS011;5753;54.402;10.220;2024-01-30T04:07:20;19.70;;;13.63;;
11394;SDS011;5753;54.402;10.220;2024-01-30T04:09:46;25.00;;;15.95;;
11394;SDS011;5753;54.402;10.220;2024-01-30T04:12:13;23.98;;;15.32;;
11394;SDS011;5753;54.402;10.220;2024-01-30T04:14:43;15.80;;;13.73;;
11394;SDS011;5753;54.402;10.220;2024-01-30T04:17:10;21.38;;;12.55;;
11394;SDS011;5753;54.402;10.220;2024-01-30T04:19:40;25.02;;;12.23;;
11394;SDS011;5753;54.402;10.220;2024-01-30T04:22:07;26.45;;;14.52;;
11394;SDS011;5753;54.402;10.220;2024-01-30T04:24:34;24.65;;;14.05;;
11394;SDS011;5753;54.402;10.220;2024-01-30T04:27:01;23.02;;;14.63;;
11394;SDS011;5753;54.402;10.220;2024-01-30T04:29:29;19.25;;;11.80;;
11394;SDS011;5753;54.402;10.220;2024-01-30T04:31:57;17.45;;;13.68;;
11394;SDS011;5753;54.402;10.220;2024-01-30T04:34:25;23.60;;;16.83;;
11394;SDS011;5753;54.402;10.220;2024-01-30T04:36:52;19.25;;;13.25;;
11394;SDS011;5753;54.402;10.220;2024-01-30T04:39:18;18.42;;;12.23;;
11394;SDS011;5753;54.402;10.220;2024-01-30T04:41:46;20.08;;;11.93;;
11394;SDS011;5753;54.402;10.220;2024-01-30T04:44:13;21.23;;;12.20;;
11394;SDS011;5753;54.402;10.220;2024-01-30T04:46:39;18.05;;;15.82;;
11394;SDS011;5753;54.402;10.220;2024-01-30T04:49:06;21.95;;;16.10;;
11394;SDS011;5753;54.402;10.220;2024-01-30T04:51:36;26.40;;;15.25;;
11394;SDS011;5753;54.402;10.220;2024-01-30T04:54:03;23.05;;;13.40;;
11394;SDS011;5753;54.402;10.220;2024-01-30T04:56:31;17.73;;;13.25;;
11394;SDS011;5753;54.402;10.220;2024-01-30T04:58:57;20.17;;;13.93;;
11394;SDS011;5753;54.402;10.220;2024-01-30T05:01:23;22.98;;;15.68;;
11394;SDS011;5753;54.402;10.220;2024-01-30T05:03:51;23.20;;;13.18;;
11394;SDS011;5753;54.402;10.220;2024-01-30T05:06:26;19.92;;;13.10;;
11394;SDS011;5753;54.402;10.220;2024-01-30T05:08:53;24.88;;;16.48;;
11394;SDS011;5753;54.402;10.220;2024-01-30T05:11:21;18.48;;;14.45;;
11394;SDS011;5753;54.402;10.220;2024-01-30T05:13:49;15.23;;;12.23;;
11394;SDS011;5753;54.402;10.220;2024-01-30T05:16:16;23.05;;;16.05;;
11394;SDS011;5753;54.402;10.220;2024-01-30T05:18:45;17.27;;;13.23;;
11394;SDS011;5753;54.402;10.220;2024-01-30T05:21:13;20.42;;;12.88;;
11394;SDS011;5753;54.402;10.220;2024-01-30T05:23:40;22.13;;;12.75;;
11394;SDS011;5753;54.402;10.220;2024-01-30T05:26:08;18.30;;;12.98;;
11394;SDS011;5753;54.402;10.220;2024-01-30T05:28:35;17.60;;;12.13;;
11394;SDS011;5753;54.402;10.220;2024-01-30T05:31:02;30.63;;;15.98;;
11394;SDS011;5753;54.402;10.220;2024-01-30T05:33:29;17.20;;;12.40;;
11394;SDS011;5753;54.402;10.220;2024-01-30T05:35:56;14.60;;;12.02;;
11394;SDS011;5753;54.402;10.220;2024-01-30T05:38:23;22.55;;;14.13;;
11394;SDS011;5753;54.402;10.220;2024-01-30T05:40:49;22.23;;;13.93;;
11394;SDS011;5753;54.402;10.220;2024-01-30T05:43:17;18.67;;;12.45;;
11394;SDS011;5753;54.402;10.220;2024-01-30T05:45:43;14.77;;;10.40;;
11394;SDS011;5753;54.402;10.220;2024-01-30T05:48:10;14.18;;;11.48;;
11394;SDS011;5753;54.402;10.220;2024-01-30T05:50:37;17.17;;;12.40;;
11394;SDS011;5753;54.402;10.220;2024-01-30T05:53:04;18.88;;;13.90;;
11394;SDS011;5753;54.402;10.220;2024-01-30T05:55:31;16.88;;;11.23;;
11394;SDS011;5753;54.402;10.220;2024-01-30T05:57:58;18.67;;;11.75;;
11394;SDS011;5753;54.402;10.220;2024-01-30T06:00:25;16.33;;;13.43;;
11394;SDS011;5753;54.402;10.220;2024-01-30T06:02:53;17.70;;;10.77;;
11394;SDS011;5753;54.402;10.220;2024-01-30T06:05:21;16.38;;;10.73;;
11394;SDS011;5753;54.402;10.220;2024-01-30T06:07:49;19.48;;;12.10;;
11394;SDS011;5753;54.402;10.220;2024-01-30T06:10:16;15.77;;;10.15;;
11394;SDS011;5753;54.402;10.220;2024-01-30T06:12:42;22.63;;;11.75;;
11394;SDS011;5753;54.402;10.220;2024-01-30T06:15:09;13.88;;;11.68;;
11394;SDS011;5753;54.402;10.220;2024-01-30T06:17:37;19.45;;;11.02;;
11394;SDS011;5753;54.402;10.220;2024-01-30T06:20:05;19.63;;;13.80;;
11394;SDS011;5753;54.402;10.220;2024-01-30T06:22:32;19.33;;;13.00;;
11394;SDS011;5753;54.402;10.220;2024-01-30T06:24:59;15.90;;;11.90;;
11394;SDS011;5753;54.402;10.220;2024-01-30T06:27:28;16.75;;;10.63;;
11394;SDS011;5753;54.402;10.220;2024-01-30T06:29:55;18.48;;;11.75;;
11394;SDS011;5753;54.402;10.220;2024-01-30T06:32:23;20.50;;;11.80;;
11394;SDS011;5753;54.402;10.220;2024-01-30T06:34:49;16.17;;;13.10;;
11394;SDS011;5753;54.402;10.220;2024-01-30T06:37:16;17.55;;;11.50;;
11394;SDS011;5753;54.402;10.220;2024-01-30T06:39:43;18.83;;;12.38;;
11394;SDS011;5753;54.402;10.220;2024-01-30T06:42:11;17.92;;;14.60;;
11394;SDS011;5753;54.402;10.220;2024-01-30T06:44:44;20.98;;;12.80;;
11394;SDS011;5753;54.402;10.220;2024-01-30T06:47:11;18.60;;;14.32;;
11394;SDS011;5753;54.402;10.220;2024-01-30T06:49:39;16.83;;;11.23;;
11394;SDS011;5753;54.402;10.220;2024-01-30T06:52:08;19.95;;;13.20;;
11394;SDS011;5753;54.402;10.220;2024-01-30T06:54:34;18.15;;;11.48;;
11394;SDS011;5753;54.402;10.220;2024-01-30T06:57:03;23.15;;;12.20;;
11394;SDS011;5753;54.402;10.220;2024-01-30T06:59:31;18.88;;;12.68;;
11394;SDS011;5753;54.402;10.220;2024-01-30T07:01:58;16.65;;;12.32;;
11394;SDS011;5753;54.402;10.220;2024-01-30T07:04:26;15.55;;;11.35;;
11394;SDS011;5753;54.402;10.220;2024-01-30T07:06:54;16.33;;;12.93;;
11394;SDS011;5753;54.402;10.220;2024-01-30T07:09:23;14.70;;;11.52;;
11394;SDS011;5753;54.402;10.220;2024-01-30T07:11:52;17.75;;;13.77;;
11394;SDS011;5753;54.402;10.220;2024-01-30T07:14:22;15.10;;;10.68;;
11394;SDS011;5753;54.402;10.220;2024-01-30T07:16:48;17.50;;;11.95;;
11394;SDS011;5753;54.402;10.220;2024-01-30T07:19:15;20.40;;;13.13;;
11394;SDS011;5753;54.402;10.220;2024-01-30T07:21:43;21.25;;;12.45;;
11394;SDS011;5753;54.402;10.220;2024-01-30T07:24:11;18.50;;;11.10;;
11394;SDS011;5753;54.402;10.220;2024-01-30T07:26:39;14.48;;;12.70;;
11394;SDS011;5753;54.402;10.220;2024-01-30T07:29:07;20.23;;;12.65;;
11394;SDS011;5753;54.402;10.220;2024-01-30T07:31:33;18.45;;;10.65;;
11394;SDS011;5753;54.402;10.220;2024-01-30T07:34:01;18.70;;;10.90;;
11394;SDS011;5753;54.402;10.220;2024-01-30T07:36:28;16.95;;;11.20;;
11394;SDS011;5753;54.402;10.220;2024-01-30T07:38:55;18.48;;;10.95;;
11394;SDS011;5753;54.402;10.220;2024-01-30T07:41:23;17.13;;;11.68;;
11394;SDS011;5753;54.402;10.220;2024-01-30T07:43:54;21.73;;;13.55;;
11394;SDS011;5753;54.402;10.220;2024-01-30T07:46:22;23.45;;;14.75;;
11394;SDS011;5753;54.402;10.220;2024-01-30T07:48:49;15.60;;;10.60;;
11394;SDS011;5753;54.402;10.220;2024-01-30T07:51:19;18.13;;;13.00;;
11394;SDS011;5753;54.402;10.220;2024-01-30T07:53:47;21.65;;;12.48;;
11394;SDS011;5753;54.402;10.220;2024-01-30T07:56:14;18.02;;;13.88;;
11394;SDS011;5753;54.402;10.220;2024-01-30T07:58:43;18.30;;;12.57;;
11394;SDS011;5753;54.402;10.220;2024-01-30T08:01:11;17.02;;;12.30;;
11394;SDS011;5753;54.402;10.220;2024-01-30T08:03:37;20.17;;;12.98;;
11394;SDS011;5753;54.402;10.220;2024-01-30T08:06:07;24.23;;;14.43;;
11394;SDS011;5753;54.402;10.220;2024-01-30T08:08:34;15.65;;;10.88;;
11394;SDS011;5753;54.402;10.220;2024-01-30T08:11:03;14.55;;;12.52;;
11394;SDS011;5753;54.402;10.220;2024-01-30T08:13:29;18.77;;;13.40;;
11394;SDS011;5753;54.402;10.220;2024-01-30T08:15:57;15.35;;;11.32;;
11394;SDS011;5753;54.402;10.220;2024-01-30T08:18:25;18.55;;;13.02;;
11394;SDS011;5753;54.402;10.220;2024-01-30T08:20:53;20.98;;;14.15;;
11394;SDS011;5753;54.402;10.220;2024-01-30T08:23:19;19.08;;;13.93;;
11394;SDS011;5753;54.402;10.220;2024-01-30T08:25:47;18.92;;;13.40;;
11394;SDS011;5753;54.402;10.220;2024-01-30T08:28:17;18.38;;;11.50;;
11394;SDS011;5753;54.402;10.220;2024-01-30T08:30:43;29.88;;;14.80;;
11394;SDS011;5753;54.402;10.220;2024-01-30T08:33:09;23.85;;;16.73;;
11394;SDS011;5753;54.402;10.220;2024-01-30T08:35:36;26.98;;;12.00;;
11394;SDS011;5753;54.402;10.220;2024-01-30T08:38:03;18.88;;;12.43;;
11394;SDS011;5753;54.402;10.220;2024-01-30T08:40:30;29.33;;;14.15;;
11394;SDS011;5753;54.402;10.220;2024-01-30T08:42:57;18.70;;;11.63;;
11394;SDS011;5753;54.402;10.220;2024-01-30T08:45:24;17.45;;;11.63;;
11394;SDS011;5753;54.402;10.220;2024-01-30T08:47:51;14.35;;;10.68;;
11394;SDS011;5753;54.402;10.220;2024-01-30T08:50:18;12.50;;;11.30;;
11394;SDS011;5753;54.402;10.220;2024-01-30T08:52:44;17.88;;;12.60;;
11394;SDS011;5753;54.402;10.220;2024-01-30T08:55:12;18.00;;;11.85;;
11394;SDS011;5753;54.402;10.220;2024-01-30T08:57:40;15.95;;;11.43;;
11394;SDS011;5753;54.402;10.220;2024-01-30T09:00:07;17.10;;;11.15;;
11394;SDS011;5753;54.402;10.220;2024-01-30T09:02:36;16.02;;;13.50;;
11394;SDS011;5753;54.402;10.220;2024-01-30T09:05:04;16.75;;;12.52;;
11394;SDS011;5753;54.402;10.220;2024-01-30T09:07:31;15.27;;;11.95;;
11394;SDS011;5753;54.402;10.220;2024-01-30T09:09:59;15.20;;;11.13;;
11394;SDS011;5753;54.402;10.220;2024-01-30T09:12:27;14.32;;;10.02;;
11394;SDS011;5753;54.402;10.220;2024-01-30T09:14:55;23.90;;;11.68;;
11394;SDS011;5753;54.402;10.220;2024-01-30T09:17:23;12.80;;;9.80;;
11394;SDS011;5753;54.402;10.220;2024-01-30T09:19:49;17.42;;;11.25;;
11394;SDS011;5753;54.402;10.220;2024-01-30T09:22:16;16.75;;;12.35;;
11394;SDS011;5753;54.402;10.220;2024-01-30T09:24:43;15.68;;;9.88;;
11394;SDS011;5753;54.402;10.220;2024-01-30T09:27:09;14.57;;;11.20;;
11394;SDS011;5753;54.402;10.220;2024-01-30T09:29:36;13.25;;;11.02;;
11394;SDS011;5753;54.402;10.220;2024-01-30T09:32:03;17.85;;;9.23;;
11394;SDS011;5753;54.402;10.220;2024-01-30T09:34:32;16.67;;;10.70;;
11394;SDS011;5753;54.402;10.220;2024-01-30T09:37:00;17.08;;;11.93;;
11394;SDS011;5753;54.402;10.220;2024-01-30T09:39:28;15.82;;;12.18;;
11394;SDS011;5753;54.402;10.220;2024-01-30T09:42:04;17.83;;;10.93;;
11394;SDS011;5753;54.402;10.220;2024-01-30T09:44:49;17.77;;;12.23;;
11394;SDS011;5753;54.402;10.220;2024-01-30T09:47:21;12.38;;;10.00;;
11394;SDS011;5753;54.402;10.220;2024-01-30T09:49:48;14.63;;;11.80;;
11394;SDS011;5753;54.402;10.220;2024-01-30T09:52:16;16.42;;;12.25;;
11394;SDS011;5753;54.402;10.220;2024-01-30T09:54:45;16.35;;;11.80;;
11394;SDS011;5753;54.402;10.220;2024-01-30T09:57:14;19.10;;;10.00;;
11394;SDS011;5753;54.402;10.220;2024-01-30T09:59:41;19.50;;;11.30;;
11394;SDS011;5753;54.402;10.220;2024-01-30T10:02:10;13.57;;;12.20;;
11394;SDS011;5753;54.402;10.220;2024-01-30T10:04:38;16.83;;;10.68;;
11394;SDS011;5753;54.402;10.220;2024-01-30T10:07:04;12.77;;;10.90;;
11394;SDS011;5753;54.402;10.220;2024-01-30T10:09:36;14.73;;;11.73;;
11394;SDS011;5753;54.402;10.220;2024-01-30T10:12:04;14.05;;;11.15;;
11394;SDS011;5753;54.402;10.220;2024-01-30T10:14:33;21.15;;;12.90;;
11394;SDS011;5753;54.402;10.220;2024-01-30T10:17:09;12.35;;;10.07;;
11394;SDS011;5753;54.402;10.220;2024-01-30T10:19:39;17.27;;;9.93;;
11394;SDS011;5753;54.402;10.220;2024-01-30T10:22:07;23.30;;;11.10;;
11394;SDS011;5753;54.402;10.220;2024-01-30T10:24:37;14.50;;;10.98;;
11394;SDS011;5753;54.402;10.220;2024-01-30T10:27:07;13.07;;;10.48;;
11394;SDS011;5753;54.402;10.220;2024-01-30T10:29:34;15.02;;;12.38;;
11394;SDS011;5753;54.402;10.220;2024-01-30T10:32:02;20.85;;;12.65;;
11394;SDS011;5753;54.402;10.220;2024-01-30T10:34:32;12.73;;;9.85;;
11394;SDS011;5753;54.402;10.220;2024-01-30T10:37:10;17.67;;;11.00;;
11394;SDS011;5753;54.402;10.220;2024-01-30T10:39:45;14.57;;;11.10;;
11394;SDS011;5753;54.402;10.220;2024-01-30T10:42:13;15.88;;;10.90;;
11394;SDS011;5753;54.402;10.220;2024-01-30T10:44:48;12.95;;;9.38;;
11394;SDS011;5753;54.402;10.220;2024-01-30T10:47:18;12.48;;;10.68;;
11394;SDS011;5753;54.402;10.220;2024-01-30T10:49:51;13.75;;;8.95;;
11394;SDS011;5753;54.402;10.220;2024-01-30T10:52:23;16.77;;;11.60;;
11394;SDS011;5753;54.402;10.220;2024-01-30T10:54:53;13.68;;;11.00;;
11394;SDS011;5753;54.402;10.220;2024-01-30T10:57:24;18.27;;;13.43;;
11394;SDS011;5753;54.402;10.220;2024-01-30T10:59:58;17.73;;;12.00;;
11394;SDS011;5753;54.402;10.220;2024-01-30T11:02:31;15.98;;;10.68;;
11394;SDS011;5753;54.402;10.220;2024-01-30T11:04:59;15.57;;;11.63;;
11394;SDS011;5753;54.402;10.220;2024-01-30T11:07:28;17.50;;;9.65;;
11394;SDS011;5753;54.402;10.220;2024-01-30T11:12:46;32.55;;;11.55;;
11394;SDS011;5753;54.402;10.220;2024-01-30T11:15:13;17.38;;;11.75;;
11394;SDS011;5753;54.402;10.220;2024-01-30T11:20:31;11.43;;;10.30;;
11394;SDS011;5753;54.402;10.220;2024-01-30T11:22:59;15.98;;;11.70;;
11394;SDS011;5753;54.402;10.220;2024-01-30T11:27:58;12.40;;;9.70;;
11394;SDS011;5753;54.402;10.220;2024-01-30T11:30:25;13.68;;;10.18;;
11394;SDS011;5753;54.402;10.220;2024-01-30T11:33:01;16.13;;;10.60;;
11394;SDS011;5753;54.402;10.220;2024-01-30T11:35:32;13.80;;;11.88;;
11394;SDS011;5753;54.402;10.220;2024-01-30T11:38:00;13.88;;;11.35;;
11394;SDS011;5753;54.402;10.220;2024-01-30T11:40:29;19.98;;;11.85;;
11394;SDS011;5753;54.402;10.220;2024-01-30T11:42:59;15.18;;;9.60;;
11394;SDS011;5753;54.402;10.220;2024-01-30T11:45:27;15.75;;;10.90;;
11394;SDS011;5753;54.402;10.220;2024-01-30T11:47:54;16.33;;;10.25;;
11394;SDS011;5753;54.402;10.220;2024-01-30T11:50:21;20.30;;;11.73;;
11394;SDS011;5753;54.402;10.220;2024-01-30T11:52:48;17.38;;;11.60;;
11394;SDS011;5753;54.402;10.220;2024-01-30T11:55:15;15.13;;;10.38;;
11394;SDS011;5753;54.402;10.220;2024-01-30T11:57:42;19.67;;;13.77;;
11394;SDS011;5753;54.402;10.220;2024-01-30T12:00:20;22.95;;;11.82;;
11394;SDS011;5753;54.402;10.220;2024-01-30T12:02:53;17.15;;;11.25;;
11394;SDS011;5753;54.402;10.220;2024-01-30T12:05:24;14.55;;;9.60;;
11394;SDS011;5753;54.402;10.220;2024-01-30T12:07:52;15.23;;;11.40;;
11394;SDS011;5753;54.402;10.220;2024-01-30T12:10:21;19.00;;;12.95;;
11394;SDS011;5753;54.402;10.220;2024-01-30T12:12:48;16.73;;;10.00;;
11394;SDS011;5753;54.402;10.220;2024-01-30T12:15:18;16.52;;;12.02;;
11394;SDS011;5753;54.402;10.220;2024-01-30T12:17:46;15.13;;;9.10;;
11394;SDS011;5753;54.402;10.220;2024-01-30T12:20:14;17.13;;;10.75;;
11394;SDS011;5753;54.402;10.220;2024-01-30T12:22:46;18.52;;;12.57;;
11394;SDS011;5753;54.402;10.220;2024-01-30T12:25:16;17.83;;;9.43;;
11394;SDS011;5753;54.402;10.220;2024-01-30T12:27:48;13.10;;;11.00;;
11394;SDS011;5753;54.402;10.220;2024-01-30T12:30:16;13.77;;;12.00;;
11394;SDS011;5753;54.402;10.220;2024-01-30T12:32:49;12.43;;;10.02;;
11394;SDS011;5753;54.402;10.220;2024-01-30T12:35:19;13.57;;;10.82;;
11394;SDS011;5753;54.402;10.220;2024-01-30T12:37:48;25.60;;;13.32;;
11394;SDS011;5753;54.402;10.220;2024-01-30T12:40:16;17.30;;;11.88;;
11394;SDS011;5753;54.402;10.220;2024-01-30T12:42:46;22.65;;;12.30;;
11394;SDS011;5753;54.402;10.220;2024-01-30T12:45:18;21.45;;;12.68;;
11394;SDS011;5753;54.402;10.220;2024-01-30T12:47:47;17.77;;;13.38;;
11394;SDS011;5753;54.402;10.220;2024-01-30T12:50:15;14.43;;;10.88;;
11394;SDS011;5753;54.402;10.220;2024-01-30T12:52:42;14.38;;;11.40;;
11394;SDS011;5753;54.402;10.220;2024-01-30T12:55:09;16.85;;;11.57;;
11394;SDS011;5753;54.402;10.220;2024-01-30T12:57:37;18.95;;;11.85;;
11394;SDS011;5753;54.402;10.220;2024-01-30T13:00:04;14.57;;;10.98;;
11394;SDS011;5753;54.402;10.220;2024-01-30T13:02:33;14.77;;;11.45;;
11394;SDS011;5753;54.402;10.220;2024-01-30T13:05:05;17.75;;;11.52;;
11394;SDS011;5753;54.402;10.220;2024-01-30T13:07:32;15.50;;;9.75;;
11394;SDS011;5753;54.402;10.220;2024-01-30T13:10:00;17.75;;;11.63;;
11394;SDS011;5753;54.402;10.220;2024-01-30T13:12:30;17.10;;;11.57;;
11394;SDS011;5753;54.402;10.220;2024-01-30T13:14:58;15.50;;;13.48;;
11394;SDS011;5753;54.402;10.220;2024-01-30T13:17:29;14.35;;;12.43;;
11394;SDS011;5753;54.402;10.220;2024-01-30T13:19:57;14.20;;;11.70;;
11394;SDS011;5753;54.402;10.220;2024-01-30T13:22:24;16.17;;;10.73;;
11394;SDS011;5753;54.402;10.220;2024-01-30T13:24:51;17.95;;;12.48;;
11394;SDS011;5753;54.402;10.220;2024-01-30T13:27:20;19.23;;;13.75;;
11394;SDS011;5753;54.402;10.220;2024-01-30T13:29:47;22.08;;;11.90;;
11394;SDS011;5753;54.402;10.220;2024-01-30T13:32:13;17.83;;;12.23;;
11394;SDS011;5753;54.402;10.220;2024-01-30T13:34:42;14.38;;;11.48;;
11394;SDS011;5753;54.402;10.220;2024-01-30T13:37:08;21.77;;;14.57;;
11394;SDS011;5753;54.402;10.220;2024-01-30T13:39:36;17.38;;;12.60;;
11394;SDS011;5753;54.402;10.220;2024-01-30T13:42:04;23.50;;;13.45;;
11394;SDS011;5753;54.402;10.220;2024-01-30T13:44:30;18.90;;;12.23;;
11394;SDS011;5753;54.402;10.220;2024-01-30T13:46:58;18.38;;;13.40;;
11394;SDS011;5753;54.402;10.220;2024-01-30T13:49:24;16.55;;;11.38;;
11394;SDS011;5753;54.402;10.220;2024-01-30T13:51:52;16.52;;;12.52;;
11394;SDS011;5753;54.402;10.220;2024-01-30T13:54:18;15.23;;;10.32;;
11394;SDS011;5753;54.402;10.220;2024-01-30T13:56:45;15.23;;;10.07;;
11394;SDS011;5753;54.402;10.220;2024-01-30T13:59:11;19.40;;;11.73;;
11394;SDS011;5753;54.402;10.220;2024-01-30T14:01:39;20.25;;;10.68;;
11394;SDS011;5753;54.402;10.220;2024-01-30T14:04:07;20.92;;;14.52;;
11394;SDS011;5753;54.402;10.220;2024-01-30T14:06:35;19.15;;;13.77;;
11394;SDS011;5753;54.402;10.220;2024-01-30T14:09:01;20.40;;;13.23;;
11394;SDS011;5753;54.402;10.220;2024-01-30T14:11:30;14.07;;;11.50;;
11394;SDS011;5753;54.402;10.220;2024-01-30T14:13:57;25.27;;;12.40;;
11394;SDS011;5753;54.402;10.220;2024-01-30T14:16:24;13.05;;;9.57;;
11394;SDS011;5753;54.402;10.220;2024-01-30T14:18:50;20.75;;;13.20;;
11394;SDS011;5753;54.402;10.220;2024-01-30T14:21:18;20.40;;;13.40;;
11394;SDS011;5753;54.402;10.220;2024-01-30T14:23:44;23.55;;;12.82;;
11394;SDS011;5753;54.402;10.220;2024-01-30T14:26:13;22.65;;;11.43;;
11394;SDS011;5753;54.402;10.220;2024-01-30T14:28:41;23.17;;;13.30;;
11394;SDS011;5753;54.402;10.220;2024-01-30T14:31:10;16.55;;;13.13;;
11394;SDS011;5753;54.402;10.220;2024-01-30T14:33:36;15.38;;;9.75;;